Kingston, Rhode Island
Current Conditions -  °F | °C
As of 9:50 PM on Wednesday 26 Nov 2014 (Local Time) from KOQU Reporting Station
Light Rain Light Rain  
Wind Chill: 26°   Ceiling: 1100
Heat Index: 37°   Visibility: 3mi
Dew Point: 37°   Wind: 23mph
Humidity: 100%   Direction: 10°N
Pressure: 29.61"   Gusts: 35mph
Location:  41.48°N, 71.52°W
Report Text: KOQU 270250Z 01020G30KT 3SM -RA BR SCT008 OVC011 03/03 A2961
Loading
Personal Weather Stations






























Interactive Weather Map New forecast layout! Learn more

10-Day Weather Forecast

Advertisements
Track Severe Weather on mobile